Time;durP1;ratioP1;P1;durP2;ratioP2;P2;SDS_P1;SDS_P2;PMS_P1;PMS_P2;Temp;Humidity;BMP_temperature;BMP_pressure;BME280_temperature;BME280_humidity;BME280_pressure;Samples;Min_cycle;Max_cycle;Signal;HPM_P1;HPM_P2
2023/10/21 00:00:11;;;;;;;0.40;0.20;;;13.60;99.90;;;;;;5135902;27;20459;-61
2023/10/21 00:02:40;;;;;;;0.40;0.20;;;13.70;99.90;;;;;;5136855;27;20422;-63
2023/10/21 00:05:07;;;;;;;0.60;0.20;;;13.70;99.90;;;;;;5136720;27;20838;-63
2023/10/21 00:07:34;;;;;;;0.40;0.20;;;13.70;99.90;;;;;;5137365;27;20437;-62
2023/10/21 00:10:01;;;;;;;1.20;0.20;;;13.80;99.90;;;;;;5137243;27;20422;-62
2023/10/21 00:12:28;;;;;;;0.40;0.20;;;13.80;99.90;;;;;;5137236;27;20767;-62
2023/10/21 00:14:55;;;;;;;0.70;0.20;;;13.70;99.90;;;;;;5137099;27;20894;-63
2023/10/21 00:17:22;;;;;;;0.40;0.20;;;13.70;99.90;;;;;;5137712;27;20427;-64
2023/10/21 00:19:51;;;;;;;0.40;0.20;;;13.80;99.90;;;;;;5137223;27;20829;-63
2023/10/21 00:22:18;;;;;;;0.50;0.20;;;13.70;99.90;;;;;;5137103;27;20422;-64
2023/10/21 00:24:45;;;;;;;0.40;0.20;;;13.80;99.90;;;;;;5136909;27;20411;-64
2023/10/21 00:27:12;;;;;;;0.50;0.20;;;13.80;99.90;;;;;;5136918;27;20407;-64
2023/10/21 00:29:39;;;;;;;1.42;0.20;;;13.70;99.90;;;;;;5137514;27;20538;-63
2023/10/21 00:32:06;;;;;;;0.40;0.20;;;13.80;99.90;;;;;;5136788;27;20410;-63
2023/10/21 00:34:38;;;;;;;0.40;0.10;;;13.80;99.90;;;;;;5137510;27;20426;-63
2023/10/21 00:37:07;;;;;;;0.30;0.10;;;13.80;99.90;;;;;;5136862;27;20819;-62
2023/10/21 00:39:35;;;;;;;0.30;0.10;;;14.00;99.90;;;;;;5136901;27;20440;-62
2023/10/21 00:42:02;;;;;;;0.40;0.20;;;14.00;99.90;;;;;;5136602;27;20415;-63
2023/10/21 00:44:29;;;;;;;0.80;0.20;;;14.00;99.90;;;;;;5136172;27;20426;-62
2023/10/21 00:46:59;;;;;;;0.60;0.10;;;14.00;99.90;;;;;;5136276;27;20471;-63
2023/10/21 00:49:26;;;;;;;0.30;0.10;;;14.00;99.90;;;;;;5137031;27;20868;-62
2023/10/21 00:51:54;;;;;;;0.40;0.15;;;14.00;99.90;;;;;;5136305;27;20419;-63
2023/10/21 00:54:23;;;;;;;0.30;0.10;;;14.00;99.90;;;;;;5137118;27;20410;-62
2023/10/21 00:56:51;;;;;;;0.30;0.10;;;14.00;99.90;;;;;;5136561;27;20487;-63
2023/10/21 00:59:19;;;;;;;0.30;0.10;;;13.90;99.90;;;;;;5136580;27;20505;-62
2023/10/21 01:01:46;;;;;;;0.43;0.20;;;13.90;99.90;;;;;;5136101;27;20484;-63
2023/10/21 01:04:14;;;;;;;0.30;0.10;;;14.00;99.90;;;;;;5136417;27;20422;-64
2023/10/21 01:06:41;;;;;;;0.50;0.20;;;14.00;99.90;;;;;;5136623;27;20890;-63
2023/10/21 01:09:10;;;;;;;0.40;0.10;;;14.10;99.90;;;;;;5135960;27;20410;-63
2023/10/21 01:11:38;;;;;;;0.40;0.10;;;14.00;99.90;;;;;;5136058;27;20426;-63
2023/10/21 01:14:09;;;;;;;0.40;0.10;;;14.00;99.90;;;;;;5136009;27;20483;-63
2023/10/21 01:16:36;;;;;;;0.30;0.15;;;14.00;99.90;;;;;;5136303;27;20426;-62
2023/10/21 01:19:05;;;;;;;0.50;0.20;;;14.00;99.90;;;;;;5135861;27;20419;-61
2023/10/21 01:21:32;;;;;;;0.40;0.20;;;14.10;99.90;;;;;;5135947;27;20464;-62
2023/10/21 01:24:01;;;;;;;0.50;0.20;;;14.10;99.90;;;;;;5136154;27;20410;-61
2023/10/21 01:26:28;;;;;;;0.40;0.20;;;14.00;99.90;;;;;;5136502;27;20415;-63
2023/10/21 01:28:55;;;;;;;0.30;0.10;;;14.00;99.90;;;;;;5136256;27;20418;-62
2023/10/21 01:31:22;;;;;;;0.30;0.10;;;14.10;99.90;;;;;;5136045;27;20707;-62
2023/10/21 01:33:49;;;;;;;0.38;0.10;;;14.00;99.90;;;;;;5135010;27;20414;-63
2023/10/21 01:36:17;;;;;;;0.30;0.20;;;14.00;99.90;;;;;;5135962;27;20422;-63
2023/10/21 01:38:44;;;;;;;0.40;0.10;;;14.00;99.90;;;;;;5136151;27;20422;-62
2023/10/21 01:41:12;;;;;;;0.50;0.10;;;14.00;99.90;;;;;;5136391;27;20870;-62
2023/10/21 01:43:39;;;;;;;0.30;0.10;;;14.00;99.90;;;;;;5135889;27;20770;-61
2023/10/21 01:46:07;;;;;;;0.30;0.10;;;14.00;99.90;;;;;;5135251;27;20444;-62
2023/10/21 01:48:34;;;;;;;0.40;0.20;;;14.00;99.90;;;;;;5135282;27;20838;-61
2023/10/21 01:51:04;;;;;;;0.40;0.20;;;14.00;99.90;;;;;;5135638;27;20406;-62
2023/10/21 01:53:32;;;;;;;0.30;0.10;;;14.10;99.90;;;;;;5134704;27;20961;-62
2023/10/21 01:56:03;;;;;;;0.30;0.17;;;14.10;99.90;;;;;;5136207;27;20434;-63
2023/10/21 01:58:32;;;;;;;0.40;0.20;;;14.10;99.90;;;;;;5139588;27;20426;-62
2023/10/21 02:00:59;;;;;;;0.30;0.20;;;14.10;99.90;;;;;;5139347;27;20425;-62
2023/10/21 02:03:27;;;;;;;0.50;0.20;;;14.10;99.90;;;;;;5139731;27;20410;-63
2023/10/21 02:05:54;;;;;;;0.30;0.10;;;14.10;99.90;;;;;;5139483;27;20407;-63
2023/10/21 02:08:21;;;;;;;0.40;0.20;;;14.10;99.90;;;;;;5139674;27;20422;-62
2023/10/21 02:10:47;;;;;;;0.50;0.10;;;14.10;99.90;;;;;;5137999;27;20418;-62
2023/10/21 02:13:14;;;;;;;0.30;0.10;;;14.00;99.90;;;;;;5138183;27;20848;-62
2023/10/21 02:15:43;;;;;;;0.30;0.20;;;14.00;99.90;;;;;;5137878;27;20852;-62
2023/10/21 02:18:10;;;;;;;0.30;0.10;;;14.00;99.90;;;;;;5138452;27;20418;-61
2023/10/21 02:20:37;;;;;;;1.10;0.10;;;13.90;99.90;;;;;;5138053;27;20475;-61
2023/10/21 02:23:04;;;;;;;0.40;0.10;;;13.90;99.90;;;;;;5138577;27;20837;-62
2023/10/21 02:25:32;;;;;;;0.30;0.10;;;13.90;99.90;;;;;;5139181;27;20414;-61
2023/10/21 02:27:59;;;;;;;0.30;0.10;;;14.00;99.90;;;;;;5139371;27;20440;-62
2023/10/21 02:30:26;;;;;;;0.30;0.10;;;13.90;99.90;;;;;;5138749;27;20418;-62
2023/10/21 02:32:55;;;;;;;0.40;0.10;;;13.90;99.90;;;;;;5139323;27;20826;-62
2023/10/21 02:35:22;;;;;;;0.30;0.10;;;14.00;99.90;;;;;;5138967;27;20792;-62
2023/10/21 02:37:49;;;;;;;0.30;0.10;;;14.00;99.90;;;;;;5139085;27;20853;-62
2023/10/21 02:40:16;;;;;;;0.40;0.10;;;13.90;99.90;;;;;;5139879;27;20410;-62
2023/10/21 02:42:43;;;;;;;0.30;0.10;;;13.90;99.90;;;;;;5139163;27;20422;-62
2023/10/21 02:45:11;;;;;;;0.30;0.10;;;13.90;99.90;;;;;;5139375;27;20418;-62
2023/10/21 02:47:38;;;;;;;0.30;0.10;;;13.90;99.90;;;;;;5139020;27;20490;-62
2023/10/21 02:50:08;;;;;;;0.40;0.10;;;13.90;99.90;;;;;;5139316;27;20517;-62
2023/10/21 02:52:36;;;;;;;0.30;0.10;;;13.90;99.90;;;;;;5139007;27;20426;-61
2023/10/21 02:55:03;;;;;;;0.30;0.10;;;13.90;99.90;;;;;;5138793;27;20508;-62
2023/10/21 02:57:30;;;;;;;0.30;0.10;;;13.90;99.90;;;;;;5138544;27;20734;-62
2023/10/21 02:59:58;;;;;;;0.30;0.10;;;13.90;99.90;;;;;;5138420;27;20833;-62
2023/10/21 03:02:25;;;;;;;0.50;0.20;;;13.80;99.90;;;;;;5138470;27;20842;-62
2023/10/21 03:04:52;;;;;;;0.30;0.10;;;13.80;99.90;;;;;;5139069;27;20425;-62
2023/10/21 03:07:20;;;;;;;0.30;0.10;;;13.80;99.90;;;;;;5137316;27;20413;-62
2023/10/21 03:09:47;;;;;;;0.30;0.10;;;13.70;99.90;;;;;;5138092;27;20483;-62
2023/10/21 03:12:14;;;;;;;0.30;0.10;;;13.70;99.90;;;;;;5138114;27;20422;-62
2023/10/21 03:14:41;;;;;;;0.30;0.10;;;13.60;99.90;;;;;;5137601;27;20429;-62
2023/10/21 03:17:08;;;;;;;0.30;0.20;;;13.70;99.90;;;;;;5137790;27;20479;-63
2023/10/21 03:19:35;;;;;;;0.50;0.10;;;13.70;99.90;;;;;;5138224;27;20467;-63
2023/10/21 03:22:02;;;;;;;0.30;0.10;;;13.80;99.90;;;;;;5138055;27;20466;-63
2023/10/21 03:24:30;;;;;;;0.30;0.10;;;13.80;99.90;;;;;;5138350;27;20419;-62
2023/10/21 03:26:57;;;;;;;0.30;0.10;;;13.80;99.90;;;;;;5138784;27;20418;-63
2023/10/21 03:29:24;;;;;;;0.30;0.10;;;13.80;99.90;;;;;;5138077;27;20479;-63
2023/10/21 03:31:51;;;;;;;0.30;0.10;;;13.70;99.90;;;;;;5138274;27;20490;-64
2023/10/21 03:34:18;;;;;;;0.30;0.10;;;13.70;99.90;;;;;;5137964;27;20467;-64
2023/10/21 03:36:45;;;;;;;0.30;0.10;;;13.70;99.90;;;;;;5138393;27;20431;-63
2023/10/21 03:39:13;;;;;;;0.80;0.10;;;13.70;99.90;;;;;;5138131;27;20475;-64
2023/10/21 03:41:41;;;;;;;0.30;0.10;;;13.80;99.90;;;;;;5137597;27;20433;-63
2023/10/21 03:44:08;;;;;;;0.40;0.10;;;13.80;99.90;;;;;;5138123;27;20893;-63
2023/10/21 03:46:36;;;;;;;0.30;0.10;;;13.80;99.90;;;;;;5138203;27;20440;-63
2023/10/21 03:49:03;;;;;;;0.40;0.10;;;13.80;99.90;;;;;;5137566;27;20779;-63
2023/10/21 03:51:30;;;;;;;0.30;0.10;;;13.80;99.90;;;;;;5137778;27;20418;-63
2023/10/21 03:53:57;;;;;;;0.30;0.10;;;13.80;99.90;;;;;;5137099;27;20414;-63
2023/10/21 03:56:24;;;;;;;0.30;0.10;;;13.80;99.90;;;;;;5137649;27;20727;-63
2023/10/21 03:58:53;;;;;;;0.30;0.10;;;14.00;99.90;;;;;;5136479;27;20840;-63
2023/10/21 04:01:21;;;;;;;0.30;0.10;;;13.90;99.90;;;;;;5136447;27;20519;-64
2023/10/21 04:03:48;;;;;;;0.30;0.10;;;13.90;99.90;;;;;;5137436;27;20510;-63
2023/10/21 04:06:16;;;;;;;0.40;0.10;;;13.90;99.90;;;;;;5136383;27;20479;-63
2023/10/21 04:08:43;;;;;;;0.40;0.10;;;13.90;99.90;;;;;;5137230;27;20509;-61
2023/10/21 04:11:10;;;;;;;0.45;0.10;;;13.80;99.90;;;;;;5136835;27;20487;-62
2023/10/21 04:13:37;;;;;;;0.30;0.10;;;13.90;99.90;;;;;;5137284;27;20483;-61
2023/10/21 04:16:05;;;;;;;0.50;0.10;;;13.90;99.90;;;;;;5136043;27;20414;-62
2023/10/21 04:18:32;;;;;;;0.30;0.10;;;14.00;99.90;;;;;;5135827;27;20423;-62
2023/10/21 04:20:59;;;;;;;0.30;0.10;;;14.10;99.90;;;;;;5136731;27;20422;-62
2023/10/21 04:23:26;;;;;;;0.30;0.10;;;14.10;99.90;;;;;;5136294;27;20842;-62
2023/10/21 04:25:53;;;;;;;0.30;0.10;;;14.20;99.90;;;;;;5136637;27;20479;-61
2023/10/21 04:28:20;;;;;;;0.30;0.10;;;14.20;99.90;;;;;;5137267;27;20680;-61
2023/10/21 04:30:47;;;;;;;0.50;0.10;;;14.30;99.90;;;;;;5137341;27;20478;-61
2023/10/21 04:33:16;;;;;;;0.30;0.10;;;14.30;99.90;;;;;;5137384;27;20422;-62
2023/10/21 04:35:43;;;;;;;0.30;0.10;;;14.40;99.90;;;;;;5137083;27;20469;-62
2023/10/21 04:38:10;;;;;;;0.30;0.10;;;14.30;99.90;;;;;;5135570;27;20857;-62
2023/10/21 04:40:37;;;;;;;0.50;0.20;;;14.30;99.90;;;;;;5134292;27;20426;-61
2023/10/21 04:43:04;;;;;;;0.90;0.10;;;14.30;99.90;;;;;;5135005;27;20414;-62
2023/10/21 04:45:31;;;;;;;0.30;0.10;;;14.30;99.90;;;;;;5135458;27;20420;-62
2023/10/21 04:47:58;;;;;;;0.70;0.10;;;14.20;99.90;;;;;;5134842;27;20465;-61
2023/10/21 04:50:27;;;;;;;0.30;0.10;;;14.20;99.90;;;;;;5136500;27;20418;-62
2023/10/21 04:52:54;;;;;;;0.30;0.10;;;14.40;99.90;;;;;;5135622;27;20419;-61
2023/10/21 04:55:21;;;;;;;0.30;0.10;;;14.40;99.90;;;;;;5136899;27;20411;-61
2023/10/21 04:57:48;;;;;;;0.40;0.10;;;14.40;99.90;;;;;;5136770;27;20522;-62
2023/10/21 05:00:15;;;;;;;0.40;0.10;;;14.30;99.90;;;;;;5136374;27;20425;-62
2023/10/21 05:02:42;;;;;;;0.45;0.10;;;14.30;99.90;;;;;;5136838;27;20422;-63
2023/10/21 05:05:12;;;;;;;0.38;0.10;;;14.30;99.90;;;;;;5136322;27;20849;-63
2023/10/21 05:07:42;;;;;;;0.50;0.10;;;14.30;99.90;;;;;;5135752;27;20410;-62
2023/10/21 05:10:10;;;;;;;0.40;0.10;;;14.30;99.90;;;;;;5136138;27;20459;-63
2023/10/21 05:12:37;;;;;;;0.90;0.10;;;14.30;99.90;;;;;;5135658;27;20483;-63
2023/10/21 05:15:04;;;;;;;0.37;0.17;;;14.30;99.90;;;;;;5136397;27;20426;-63
2023/10/21 05:17:31;;;;;;;0.60;0.13;;;14.40;99.90;;;;;;5135892;27;20422;-64
2023/10/21 05:19:58;;;;;;;0.30;0.10;;;14.40;99.90;;;;;;5136207;27;20433;-64
2023/10/21 05:22:25;;;;;;;0.40;0.13;;;14.40;99.90;;;;;;5136354;27;20414;-62
2023/10/21 05:24:54;;;;;;;0.40;0.10;;;14.40;99.90;;;;;;5136713;27;20467;-63
2023/10/21 05:27:21;;;;;;;0.30;0.10;;;14.30;99.90;;;;;;5136148;27;20834;-63
2023/10/21 05:29:47;;;;;;;0.47;0.20;;;14.30;99.90;;;;;;5135484;27;20496;-64
2023/10/21 05:32:15;;;;;;;0.40;0.10;;;14.30;99.90;;;;;;5134799;27;20418;-64
2023/10/21 05:34:42;;;;;;;0.40;0.20;;;14.30;99.90;;;;;;5135785;27;20417;-63
2023/10/21 05:37:09;;;;;;;0.50;0.20;;;14.30;99.90;;;;;;5134743;27;20427;-63
2023/10/21 05:39:36;;;;;;;0.50;0.20;;;14.30;99.90;;;;;;5136108;27;20418;-64
2023/10/21 05:42:05;;;;;;;0.40;0.20;;;14.30;99.90;;;;;;5135861;27;20778;-63
2023/10/21 05:44:32;;;;;;;0.38;0.15;;;14.30;99.90;;;;;;5135634;27;20426;-63
2023/10/21 05:46:59;;;;;;;0.60;0.20;;;14.30;99.90;;;;;;5134746;27;20817;-63
2023/10/21 05:49:26;;;;;;;0.40;0.20;;;14.30;99.90;;;;;;5135738;27;20771;-62
2023/10/21 05:51:53;;;;;;;0.55;0.20;;;14.30;99.90;;;;;;5134776;27;20764;-60
2023/10/21 05:54:20;;;;;;;0.32;0.20;;;14.30;99.90;;;;;;5133706;27;20418;-61
2023/10/21 05:56:47;;;;;;;0.80;0.20;;;14.40;99.90;;;;;;5134093;27;20418;-61
2023/10/21 05:59:15;;;;;;;0.40;0.20;;;14.40;99.90;;;;;;5134370;27;20426;-61
2023/10/21 06:01:42;;;;;;;0.40;0.20;;;14.50;99.90;;;;;;5135047;27;20841;-61
2023/10/21 06:04:09;;;;;;;0.50;0.20;;;14.50;99.90;;;;;;5133677;27;20435;-59
2023/10/21 06:06:36;;;;;;;0.80;0.20;;;14.50;99.90;;;;;;5135104;27;20768;-59
2023/10/21 06:09:03;;;;;;;0.50;0.20;;;14.50;99.90;;;;;;5134938;27;20414;-60
2023/10/21 06:11:31;;;;;;;0.40;0.20;;;14.50;99.90;;;;;;5135580;27;20822;-60
2023/10/21 06:13:57;;;;;;;0.50;0.20;;;14.50;99.90;;;;;;5135279;27;20468;-60
2023/10/21 06:16:26;;;;;;;0.80;0.20;;;14.50;99.90;;;;;;5135408;27;20463;-60
2023/10/21 06:18:53;;;;;;;0.40;0.20;;;14.40;99.90;;;;;;5126048;27;20426;-60
2023/10/21 06:21:20;;;;;;;0.47;0.20;;;14.20;99.90;;;;;;5135946;27;20418;-60
2023/10/21 06:23:47;;;;;;;0.40;0.20;;;14.00;99.90;;;;;;5135756;27;20430;-59
2023/10/21 06:26:14;;;;;;;0.30;0.10;;;13.90;99.90;;;;;;5133221;27;20846;-59
2023/10/21 06:28:41;;;;;;;0.40;0.20;;;13.90;99.90;;;;;;5133848;27;20464;-59
2023/10/21 06:31:08;;;;;;;0.40;0.20;;;13.90;99.90;;;;;;5133568;27;20439;-59
2023/10/21 06:33:35;;;;;;;0.40;0.20;;;13.90;99.90;;;;;;5134547;27;20757;-59
2023/10/21 06:36:03;;;;;;;0.30;0.15;;;13.90;99.90;;;;;;5134517;27;20422;-60
2023/10/21 06:38:30;;;;;;;0.40;0.20;;;13.90;99.90;;;;;;5134766;27;20431;-61
2023/10/21 06:40:57;;;;;;;0.40;0.10;;;13.80;99.90;;;;;;5133469;27;20869;-60
2023/10/21 06:43:24;;;;;;;0.30;0.10;;;13.80;99.90;;;;;;5135665;27;20422;-60
2023/10/21 06:45:52;;;;;;;1.50;0.10;;;13.70;99.90;;;;;;5136604;27;20838;-60
2023/10/21 06:48:19;;;;;;;0.70;0.20;;;13.70;99.90;;;;;;5137841;27;20417;-60
2023/10/21 06:50:47;;;;;;;0.50;0.10;;;13.70;99.90;;;;;;5137266;27;20418;-59
2023/10/21 06:53:15;;;;;;;0.47;0.20;;;13.70;99.90;;;;;;5136733;27;20471;-60
2023/10/21 06:55:43;;;;;;;0.30;0.10;;;13.70;99.90;;;;;;5136407;27;20471;-60
2023/10/21 06:58:10;;;;;;;0.40;0.10;;;13.60;99.90;;;;;;5138851;27;20426;-60
2023/10/21 07:00:38;;;;;;;0.30;0.20;;;13.60;99.90;;;;;;5138453;27;20426;-60
2023/10/21 07:03:05;;;;;;;0.37;0.10;;;13.60;99.90;;;;;;5137560;27;20831;-60
2023/10/21 07:05:32;;;;;;;0.47;0.20;;;13.60;99.90;;;;;;5136385;27;20724;-60
2023/10/21 07:08:00;;;;;;;0.40;0.10;;;13.60;99.90;;;;;;5138196;27;20471;-60
2023/10/21 07:10:29;;;;;;;0.30;0.10;;;13.70;99.90;;;;;;5138703;27;20488;-59
2023/10/21 07:12:57;;;;;;;1.98;0.90;;;13.70;99.90;;;;;;5138569;27;20407;-60
2023/10/21 07:15:25;;;;;;;0.45;0.20;;;13.80;99.90;;;;;;5137901;27;20522;-59
2023/10/21 07:17:52;;;;;;;0.40;0.20;;;13.80;99.90;;;;;;5136473;27;20435;-59
2023/10/21 07:20:20;;;;;;;0.30;0.10;;;14.00;99.90;;;;;;5137700;27;20418;-59
2023/10/21 07:22:47;;;;;;;0.60;0.20;;;14.00;99.90;;;;;;5137884;27;20478;-61
2023/10/21 07:25:18;;;;;;;0.30;0.10;;;14.10;99.90;;;;;;5137276;27;20454;-60
2023/10/21 07:27:45;;;;;;;0.40;0.10;;;14.20;99.90;;;;;;5126634;27;20422;-60
2023/10/21 07:30:12;;;;;;;0.30;0.10;;;14.30;99.90;;;;;;5136631;27;21064;-60
2023/10/21 07:32:39;;;;;;;0.40;0.10;;;14.40;99.90;;;;;;5137546;27;20419;-60
2023/10/21 07:35:07;;;;;;;0.30;0.10;;;14.50;90.70;;;;;;5138167;27;20511;-60
2023/10/21 07:37:34;;;;;;;0.40;0.20;;;14.60;92.20;;;;;;5136332;27;20422;-59
2023/10/21 07:40:02;;;;;;;0.30;0.10;;;14.60;60.00;;;;;;5136723;27;20406;-58
2023/10/21 07:42:30;;;;;;;0.40;0.10;;;14.70;54.50;;;;;;5137141;27;20423;-59
2023/10/21 07:44:57;;;;;;;1.00;0.10;;;14.80;52.10;;;;;;5136208;27;20753;-59
2023/10/21 07:47:25;;;;;;;0.38;0.10;;;14.90;49.80;;;;;;5135861;27;20467;-57
2023/10/21 07:49:52;;;;;;;0.30;0.10;;;15.00;38.60;;;;;;5135730;27;20445;-57
2023/10/21 07:52:19;;;;;;;0.40;0.20;;;15.10;46.20;;;;;;5136436;27;20455;-57
2023/10/21 07:54:46;;;;;;;0.30;0.10;;;15.30;51.40;;;;;;5135048;27;21018;-57
2023/10/21 07:57:13;;;;;;;0.30;0.10;;;15.40;22.50;;;;;;5136175;27;20479;-58
2023/10/21 07:59:41;;;;;;;0.50;0.20;;;15.30;23.00;;;;;;5135928;27;20426;-58
2023/10/21 08:02:08;;;;;;;0.50;0.20;;;15.30;20.80;;;;;;5137177;27;20490;-58
2023/10/21 08:04:35;;;;;;;0.50;0.20;;;15.30;2.80;;;;;;5137677;27;20410;-57
2023/10/21 08:07:02;;;;;;;0.30;0.10;;;15.30;1.00;;;;;;5137914;27;20455;-58
2023/10/21 08:09:29;;;;;;;0.30;0.10;;;15.30;1.00;;;;;;5137061;27;20414;-58
2023/10/21 08:11:56;;;;;;;0.43;0.20;;;15.40;1.00;;;;;;5136914;27;20473;-59
2023/10/21 08:14:23;;;;;;;0.30;0.10;;;15.40;1.00;;;;;;5136281;27;20423;-58
2023/10/21 08:16:52;;;;;;;0.70;0.10;;;15.60;1.00;;;;;;5135357;27;20783;-59
2023/10/21 08:19:19;;;;;;;1.90;0.20;;;15.70;1.00;;;;;;5134327;27;20423;-58
2023/10/21 08:21:46;;;;;;;0.40;0.20;;;15.70;1.00;;;;;;5136185;27;20486;-58
2023/10/21 08:24:13;;;;;;;2.30;0.20;;;15.70;1.00;;;;;;5134960;27;20418;-59
2023/10/21 08:26:40;;;;;;;0.40;0.20;;;15.70;1.00;;;;;;5135325;27;20486;-59
2023/10/21 08:29:07;;;;;;;1.00;0.20;;;15.70;1.00;;;;;;5136507;27;20410;-59
2023/10/21 08:31:34;;;;;;;0.40;0.10;;;15.70;1.00;;;;;;5133185;27;20467;-59
2023/10/21 08:34:02;;;;;;;0.40;0.10;;;15.80;1.00;;;;;;5132903;27;20721;-59
2023/10/21 08:36:29;;;;;;;0.30;0.10;;;15.80;1.00;;;;;;5133410;27;20776;-59
2023/10/21 08:38:57;;;;;;;0.50;0.20;;;15.80;1.00;;;;;;5134876;27;20438;-58
2023/10/21 08:41:24;;;;;;;0.65;0.10;;;15.80;1.00;;;;;;5134683;27;20791;-59
2023/10/21 08:43:51;;;;;;;0.40;0.10;;;15.90;1.00;;;;;;5134167;27;20513;-59
2023/10/21 08:46:19;;;;;;;1.60;0.10;;;15.90;1.00;;;;;;5134864;27;20414;-58
2023/10/21 08:48:47;;;;;;;0.30;0.10;;;15.90;1.00;;;;;;5134812;27;20414;-60
2023/10/21 08:51:19;;;;;;;0.30;0.10;;;15.80;1.00;;;;;;5134071;27;20422;-58
2023/10/21 08:53:48;;;;;;;0.40;0.10;;;15.80;1.00;;;;;;5134294;27;20518;-58
2023/10/21 08:56:15;;;;;;;0.35;0.10;;;15.90;1.00;;;;;;5133900;27;20419;-58
2023/10/21 08:58:42;;;;;;;0.30;0.10;;;15.90;1.00;;;;;;5134118;27;20427;-58
2023/10/21 09:01:10;;;;;;;0.40;0.10;;;16.00;1.00;;;;;;5133739;27;20469;-58
2023/10/21 09:03:37;;;;;;;0.70;0.10;;;16.00;1.00;;;;;;5132345;27;20426;-56
2023/10/21 09:06:10;;;;;;;0.30;0.10;;;16.10;1.00;;;;;;5134731;27;20422;-57
2023/10/21 09:08:40;;;;;;;0.90;0.10;;;16.10;1.00;;;;;;5134539;27;20475;-57
2023/10/21 09:11:08;;;;;;;0.30;0.10;;;16.00;1.00;;;;;;5133263;27;20449;-58
2023/10/21 09:13:36;;;;;;;0.30;0.10;;;16.00;1.00;;;;;;5132202;27;20414;-57
2023/10/21 09:16:04;;;;;;;0.30;0.10;;;16.10;1.00;;;;;;5131926;27;20899;-57
2023/10/21 09:18:34;;;;;;;0.30;0.10;;;16.20;1.00;;;;;;5132393;27;20462;-57
2023/10/21 09:21:03;;;;;;;0.40;0.10;;;16.20;1.00;;;;;;5134865;27;20699;-57
2023/10/21 09:23:30;;;;;;;0.50;0.10;;;16.30;1.00;;;;;;5131879;27;20498;-58
2023/10/21 09:25:59;;;;;;;0.30;0.10;;;16.50;1.00;;;;;;5132105;27;20418;-57
2023/10/21 09:28:26;;;;;;;0.40;0.20;;;16.50;1.00;;;;;;5133499;27;20501;-58
2023/10/21 09:30:58;;;;;;;0.40;0.10;;;16.50;1.00;;;;;;5133016;27;20411;-58
2023/10/21 09:33:25;;;;;;;0.80;0.10;;;16.50;1.00;;;;;;5133208;27;20605;-58
2023/10/21 09:36:03;;;;;;;0.30;0.10;;;16.60;1.00;;;;;;5133879;27;20422;-58
2023/10/21 09:38:36;;;;;;;0.30;0.10;;;16.70;1.00;;;;;;5133588;27;20437;-59
2023/10/21 09:41:08;;;;;;;0.40;0.20;;;16.70;1.00;;;;;;5131554;27;20725;-59
2023/10/21 09:43:40;;;;;;;0.40;0.20;;;16.60;99.90;;;;;;5122439;27;20431;-58
2023/10/21 09:46:11;;;;;;;1.10;0.30;;;16.60;99.90;;;;;;5130033;27;20418;-59
2023/10/21 09:48:41;;;;;;;0.70;0.40;;;16.60;1.00;;;;;;5134436;27;20837;-57
2023/10/21 09:51:12;;;;;;;0.70;0.10;;;16.70;99.90;;;;;;5132040;27;20494;-58
2023/10/21 09:53:41;;;;;;;0.30;0.10;;;16.60;28.10;;;;;;5132949;27;20423;-58
2023/10/21 09:56:15;;;;;;;0.40;0.10;;;16.80;1.00;;;;;;5133536;27;20479;-58
2023/10/21 09:58:44;;;;;;;0.57;0.10;;;16.80;1.00;;;;;;5133604;27;20525;-58
2023/10/21 10:01:12;;;;;;;0.50;0.10;;;16.80;1.00;;;;;;5133045;27;20481;-58
2023/10/21 10:03:43;;;;;;;0.32;0.10;;;16.90;99.90;;;;;;5133287;27;20455;-58
2023/10/21 10:06:11;;;;;;;0.80;0.20;;;17.00;12.40;;;;;;5130680;27;20414;-58
2023/10/21 10:08:38;;;;;;;0.40;0.10;;;17.20;1.00;;;;;;5130888;27;20907;-60
2023/10/21 10:11:13;;;;;;;0.40;0.20;;;17.30;99.90;;;;;;5132347;27;20536;-59
2023/10/21 10:13:46;;;;;;;0.40;0.10;;;17.40;1.00;;;;;;5133233;27;20441;-59
2023/10/21 10:16:24;;;;;;;0.30;0.17;;;17.50;1.00;;;;;;5133912;27;20701;-58
2023/10/21 10:18:52;;;;;;;0.40;0.20;;;17.40;1.00;;;;;;5138250;27;20430;-58
2023/10/21 10:21:20;;;;;;;0.40;0.20;;;17.30;99.90;;;;;;5138862;27;20418;-58
2023/10/21 10:23:51;;;;;;;0.40;0.10;;;17.40;99.90;;;;;;5137075;27;20468;-58
2023/10/21 10:26:34;;;;;;;0.30;0.10;;;17.50;99.90;;;;;;5136149;27;20422;-59
2023/10/21 10:29:18;;;;;;;0.50;0.20;;;17.50;99.90;;;;;;5138509;27;20474;-59
2023/10/21 10:31:45;;;;;;;0.40;0.10;;;17.70;99.90;;;;;;5137182;27;20503;-59
2023/10/21 10:34:12;;;;;;;0.30;0.10;;;18.10;99.90;;;;;;5135325;27;20418;-58
2023/10/21 10:36:40;;;;;;;0.40;0.10;;;18.00;99.90;;;;;;5135819;27;20803;-61
2023/10/21 10:39:06;;;;;;;0.80;0.10;;;18.00;99.90;;;;;;5135568;27;20429;-59
2023/10/21 10:41:48;;;;;;;0.38;0.10;;;17.80;83.00;;;;;;5135562;27;20755;-59
2023/10/21 10:44:15;;;;;;;0.40;0.20;;;17.80;99.90;;;;;;5135997;27;20543;-59
2023/10/21 10:46:42;;;;;;;0.80;0.20;;;17.70;88.00;;;;;;5128056;27;20406;-59
2023/10/21 10:49:10;;;;;;;0.30;0.10;;;17.70;99.90;;;;;;5138035;27;20875;-58
2023/10/21 10:51:44;;;;;;;0.40;0.10;;;17.80;99.90;;;;;;5144711;27;20527;-61
2023/10/21 10:54:17;;;;;;;0.30;0.10;;;17.70;99.90;;;;;;5158338;27;20515;-61
2023/10/21 10:56:47;;;;;;;0.70;0.10;;;17.70;99.90;;;;;;5159113;27;20421;-62
2023/10/21 10:59:14;;;;;;;0.60;0.30;;;17.70;99.90;;;;;;5157679;27;20433;-61
2023/10/21 11:01:41;;;;;;;0.50;0.20;;;17.80;99.90;;;;;;5158520;27;20503;-62
2023/10/21 11:04:08;;;;;;;0.60;0.30;;;17.90;99.90;;;;;;5137173;27;20418;-61
2023/10/21 11:06:39;;;;;;;0.40;0.10;;;17.90;99.90;;;;;;5135833;27;20483;-61
2023/10/21 11:09:16;;;;;;;0.80;0.25;;;18.00;99.90;;;;;;5138111;27;20514;-61
2023/10/21 11:11:50;;;;;;;0.40;0.20;;;18.10;99.90;;;;;;5136937;27;20469;-60
2023/10/21 11:14:18;;;;;;;0.40;0.10;;;18.00;96.50;;;;;;5136616;27;20429;-61
2023/10/21 11:16:45;;;;;;;0.30;0.10;;;18.10;99.90;;;;;;5135458;27;20507;-61
2023/10/21 11:19:12;;;;;;;0.40;0.20;;;18.20;99.90;;;;;;5136688;27;20482;-61
2023/10/21 11:21:41;;;;;;;0.40;0.10;;;18.50;99.90;;;;;;5137280;27;20422;-61
2023/10/21 11:24:10;;;;;;;0.30;0.10;;;18.50;1.00;;;;;;5136547;27;20423;-61
2023/10/21 11:26:38;;;;;;;0.70;0.10;;;18.50;5.20;;;;;;5135398;27;20453;-60
2023/10/21 11:29:06;;;;;;;0.40;0.20;;;18.10;18.10;;;;;;5134194;27;20422;-61
2023/10/21 11:31:35;;;;;;;1.02;0.40;;;18.10;15.00;;;;;;5135041;27;20415;-61
2023/10/21 11:34:09;;;;;;;0.45;0.10;;;18.10;10.80;;;;;;5135498;27;20693;-61
2023/10/21 11:36:37;;;;;;;0.40;0.20;;;18.10;1.00;;;;;;5135971;27;20414;-61
2023/10/21 11:39:13;;;;;;;0.30;0.10;;;18.00;1.00;;;;;;5135438;27;20426;-60
2023/10/21 11:41:44;;;;;;;0.40;0.10;;;17.80;1.00;;;;;;5133473;27;20642;-61
2023/10/21 11:44:12;;;;;;;0.40;0.10;;;17.60;1.00;;;;;;5133745;27;20414;-61
2023/10/21 11:46:39;;;;;;;0.30;0.10;;;17.60;10.30;;;;;;5134362;27;20406;-61
2023/10/21 11:49:13;;;;;;;0.30;0.10;;;17.70;43.90;;;;;;5134038;27;20414;-61
2023/10/21 11:51:42;;;;;;;0.40;0.10;;;17.70;1.00;;;;;;5136157;27;20422;-59
2023/10/21 11:54:19;;;;;;;0.40;0.10;;;17.70;1.60;;;;;;5137262;27;20415;-61
2023/10/21 12:13:54;;;;;;;0.30;0.10;;;18.60;1.00;;;;;;5134492;27;20483;-60
2023/10/21 12:19:27;;;;;;;0.60;0.10;;;18.60;1.00;;;;;;5110333;27;20418;-61
2023/10/21 12:25:15;;;;;;;0.40;0.10;;;18.80;1.00;;;;;;5084041;27;20436;-60
2023/10/21 12:31:05;;;;;;;0.57;0.10;;;18.40;1.00;;;;;;5134120;27;20398;-60
2023/10/21 12:33:48;;;;;;;0.73;0.10;;;18.50;1.00;;;;;;5134605;27;20532;-60
2023/10/21 12:36:31;;;;;;;0.50;0.20;;;18.50;1.00;;;;;;5134099;27;21039;-60
2023/10/21 12:41:40;;;;;;;0.40;0.10;;;18.50;1.00;;;;;;5133367;27;20689;-61
2023/10/21 12:44:13;;;;;;;0.60;0.13;;;18.40;1.00;;;;;;5135271;27;20418;-62
2023/10/21 12:46:40;;;;;;;0.40;0.10;;;18.30;1.00;;;;;;5134727;27;20472;-62
2023/10/21 12:49:13;;;;;;;0.30;0.10;;;18.40;1.00;;;;;;5135020;27;20413;-62
2023/10/21 12:51:41;;;;;;;0.40;0.10;;;18.30;1.00;;;;;;5134925;27;20423;-62
2023/10/21 12:54:11;;;;;;;0.57;0.10;;;18.30;1.00;;;;;;5132892;27;20411;-61
2023/10/21 12:56:38;;;;;;;0.60;0.20;;;18.20;1.00;;;;;;5130316;27;20524;-63
2023/10/21 12:59:06;;;;;;;0.30;0.10;;;18.20;1.00;;;;;;5131223;27;20521;-62
2023/10/21 13:01:33;;;;;;;1.50;0.10;;;18.20;1.00;;;;;;5131340;27;20772;-61
2023/10/21 13:04:00;;;;;;;0.35;0.10;;;18.10;1.00;;;;;;5130718;27;21594;-62
2023/10/21 13:06:29;;;;;;;0.40;0.10;;;18.10;1.00;;;;;;5132290;27;20479;-61
2023/10/21 13:08:56;;;;;;;0.30;0.10;;;18.10;1.00;;;;;;5132234;27;20452;-62
2023/10/21 13:11:23;;;;;;;0.60;0.10;;;18.00;1.00;;;;;;5134700;27;20453;-62
2023/10/21 13:13:51;;;;;;;0.40;0.20;;;18.10;1.00;;;;;;5133678;27;20422;-62
2023/10/21 13:16:18;;;;;;;0.40;0.10;;;18.10;1.00;;;;;;5134165;27;20450;-62
2023/10/21 13:18:45;;;;;;;0.67;0.10;;;17.90;1.00;;;;;;5133494;27;20422;-61
2023/10/21 13:21:12;;;;;;;0.40;0.10;;;17.90;1.00;;;;;;5135322;27;20414;-62
2023/10/21 13:23:40;;;;;;;0.40;0.10;;;18.00;1.00;;;;;;5134533;27;20419;-62